createdAt,value
2019-04-06T09:23:28.930Z,57.27
2019-04-06T09:24:29.111Z,57.78
2019-04-06T09:25:29.119Z,56.98
2019-04-06T09:26:28.891Z,56.27
2019-04-06T09:27:28.878Z,56.40
2019-04-06T09:28:28.863Z,55.95
2019-04-06T09:29:28.860Z,55.75
2019-04-06T09:30:28.842Z,56.13
2019-04-06T09:31:28.837Z,55.69
2019-04-06T09:32:28.934Z,54.33
2019-04-06T09:33:28.821Z,56.28
2019-04-06T09:34:31.073Z,56.51
2019-04-06T09:35:28.786Z,58.06
2019-04-06T09:36:28.780Z,58.26
2019-04-06T09:37:28.764Z,57.75
2019-04-06T09:38:28.753Z,57.78
2019-04-06T09:39:28.750Z,58.39
2019-04-06T09:40:28.975Z,58.09
2019-04-06T09:41:28.719Z,59.00
2019-04-06T09:42:28.711Z,57.98
2019-04-06T09:43:28.705Z,58.06
2019-04-06T09:44:28.717Z,57.88
2019-04-06T09:45:28.678Z,58.26
2019-04-06T09:46:28.666Z,57.12
2019-04-06T09:47:28.985Z,57.45
2019-04-06T09:48:28.643Z,57.53
2019-04-06T09:49:28.647Z,57.75
2019-04-06T09:50:28.830Z,57.86
2019-04-06T09:51:28.610Z,56.84
2019-04-06T09:52:28.599Z,57.65
2019-04-06T09:53:28.860Z,58.47
2019-04-06T09:54:28.575Z,58.18
2019-04-06T09:55:28.572Z,57.24
2019-04-06T09:56:28.551Z,55.80
2019-04-06T09:57:28.540Z,53.67
2019-04-06T09:58:28.749Z,54.36
2019-04-06T09:59:35.234Z,53.88
2019-04-06T10:00:29.518Z,54.18
2019-04-06T10:01:38.613Z,54.31
2019-04-06T10:02:29.517Z,55.02
2019-04-06T10:03:28.845Z,54.94
2019-04-06T10:04:28.554Z,55.24
2019-04-06T10:05:28.617Z,54.21
2019-04-06T10:06:28.441Z,54.64
2019-04-06T10:07:28.434Z,54.46
2019-04-06T10:08:28.419Z,55.57
2019-04-06T10:09:28.408Z,55.88
2019-04-06T10:10:28.445Z,53.67
2019-04-06T10:11:28.385Z,55.73
2019-04-06T10:12:28.408Z,56.34
2019-04-06T10:13:28.702Z,56.31
2019-04-06T10:14:28.363Z,55.73
2019-04-06T10:15:28.348Z,56.51
2019-04-06T10:16:28.329Z,55.90
2019-04-06T10:17:28.320Z,56.01
2019-04-06T10:18:28.305Z,55.30
2019-04-06T10:19:28.295Z,55.19
2019-04-06T10:20:28.525Z,56.08
2019-04-06T10:21:28.310Z,55.44
2019-04-06T10:22:28.444Z,55.60
2019-04-06T10:23:28.247Z,53.83
2019-04-06T10:24:28.454Z,51.96
2019-04-06T10:25:28.239Z,51.35
2019-04-06T10:26:28.305Z,51.13
2019-04-06T10:27:28.314Z,48.76
2019-04-06T10:28:28.193Z,48.08
2019-04-06T10:29:28.230Z,49.01
2019-04-06T10:30:28.216Z,48.81
2019-04-06T10:31:28.159Z,48.99
2019-04-06T10:32:28.148Z,48.36
2019-04-06T10:33:28.266Z,47.03
2019-04-06T10:34:28.128Z,47.81
2019-04-06T10:35:28.150Z,46.66
2019-04-06T10:36:28.104Z,46.64
2019-04-06T10:37:28.093Z,46.59
2019-04-06T10:38:28.351Z,43.86
2019-04-06T10:39:28.070Z,46.15
2019-04-06T10:40:28.074Z,44.32
2019-04-06T10:41:28.165Z,43.19
2019-04-06T10:42:28.990Z,43.04
2019-04-06T10:43:28.225Z,43.92
2019-04-06T10:44:28.097Z,43.82
2019-04-06T10:45:28.006Z,44.02
2019-04-06T10:46:28.007Z,43.44
2019-04-06T10:47:27.983Z,43.66
2019-04-06T10:48:27.993Z,44.31
2019-04-06T10:49:27.966Z,44.12
2019-04-06T10:50:27.953Z,45.79
2019-04-06T10:51:27.951Z,45.47
2019-04-06T10:52:27.929Z,43.64
2019-04-06T10:53:28.229Z,44.20
2019-04-06T10:54:27.912Z,44.00
2019-04-06T10:55:28.141Z,44.71
2019-04-06T10:56:27.894Z,44.46
2019-04-06T10:57:27.876Z,43.24
2019-04-06T10:58:27.872Z,44.64
2019-04-06T10:59:27.858Z,44.40
2019-04-06T11:00:27.843Z,43.27
2019-04-06T11:01:27.884Z,42.88
2019-04-06T11:02:27.821Z,42.83
2019-04-06T11:03:27.814Z,41.91
2019-04-06T11:04:27.802Z,40.99
2019-04-06T11:05:27.790Z,41.13
2019-04-06T11:06:27.789Z,41.63
2019-04-06T11:07:27.885Z,41.99
2019-04-06T11:08:27.966Z,40.89
2019-04-06T11:09:27.749Z,40.58
2019-04-06T11:10:27.896Z,39.91
2019-04-06T11:11:27.736Z,40.63
2019-04-06T11:12:27.715Z,41.89
2019-04-06T11:13:27.706Z,41.77
2019-04-06T11:14:27.804Z,41.91
2019-04-06T11:15:27.714Z,42.90
2019-04-06T11:16:27.697Z,41.63
2019-04-06T11:17:27.664Z,43.08
2019-04-06T11:18:27.656Z,44.16
2019-04-06T11:19:28.159Z,43.90
2019-04-06T11:20:27.770Z,44.56
2019-04-06T11:21:27.662Z,43.14
2019-04-06T11:22:27.614Z,43.74
2019-04-06T11:23:27.597Z,42.80
2019-04-06T11:24:27.584Z,41.57
2019-04-06T11:25:27.607Z,41.69
2019-04-06T11:26:27.581Z,41.77
2019-04-06T11:27:27.775Z,41.07
2019-04-06T11:28:27.561Z,41.55
2019-04-06T11:29:27.532Z,43.43
2019-04-06T11:30:27.522Z,40.09
2019-04-06T11:31:27.830Z,40.81
2019-04-06T11:32:27.509Z,41.49
2019-04-06T11:33:27.494Z,42.60
2019-04-06T11:34:27.477Z,42.40
2019-04-06T11:35:27.467Z,41.99
2019-04-06T11:36:27.493Z,42.30
2019-04-06T11:37:27.454Z,42.97
2019-04-06T11:38:27.685Z,42.85
2019-04-06T11:39:27.684Z,43.35
2019-04-06T11:40:27.414Z,40.89
2019-04-06T11:41:27.672Z,41.08
2019-04-06T11:42:27.409Z,41.55
2019-04-06T11:43:27.581Z,40.12
2019-04-06T11:44:27.370Z,40.89
2019-04-06T11:45:27.360Z,38.60
2019-04-06T11:46:27.632Z,39.60
2019-04-06T11:47:27.378Z,38.32
2019-04-06T11:48:27.335Z,38.56
2019-04-06T11:49:27.599Z,39.78
2019-04-06T11:50:27.319Z,40.01
2019-04-06T11:51:27.566Z,40.31
2019-04-06T11:52:27.285Z,39.93
2019-04-06T11:53:27.308Z,41.03
2019-04-06T11:54:27.274Z,42.11
2019-04-06T11:55:27.294Z,41.30
2019-04-06T11:56:27.241Z,39.87
2019-04-06T11:57:27.236Z,40.13
2019-04-06T11:58:27.233Z,41.83
2019-04-06T11:59:27.210Z,40.93
2019-04-06T12:00:28.117Z,40.67
2019-04-06T12:01:27.191Z,42.90
2019-04-06T12:02:27.178Z,41.57
2019-04-06T12:03:27.176Z,41.79
2019-04-06T12:04:27.214Z,42.19
2019-04-06T12:05:27.238Z,42.94
2019-04-06T12:06:27.366Z,42.33
2019-04-06T12:07:27.258Z,44.22
2019-04-06T12:08:27.120Z,43.19
2019-04-06T12:09:27.268Z,42.77
2019-04-06T12:10:27.092Z,40.89
2019-04-06T12:11:27.079Z,41.77
2019-04-06T12:12:27.071Z,42.19
2019-04-06T12:13:27.067Z,41.49
2019-04-06T12:14:27.099Z,42.88
2019-04-06T12:15:27.038Z,40.83
2019-04-06T12:16:27.027Z,42.49
2019-04-06T12:17:27.017Z,42.99
2019-04-06T12:18:27.257Z,42.10
2019-04-06T12:19:26.993Z,43.04
2019-04-06T12:20:27.161Z,43.86
2019-04-06T12:21:27.515Z,44.42
2019-04-06T12:22:27.010Z,42.90
2019-04-06T12:23:26.978Z,43.70
2019-04-06T12:24:26.938Z,43.22
2019-04-06T12:25:27.109Z,43.62
2019-04-06T12:26:27.170Z,42.94
2019-04-06T12:27:26.909Z,43.98
2019-04-06T12:28:26.903Z,44.68
2019-04-06T12:29:27.000Z,44.84
2019-04-06T12:30:36.599Z,43.52
2019-04-06T12:31:27.862Z,43.08
2019-04-06T12:32:26.852Z,41.49
2019-04-06T12:33:26.842Z,42.30
2019-04-06T12:34:27.129Z,42.80
2019-04-06T12:35:26.820Z,43.24
2019-04-06T12:36:26.817Z,42.03
2019-04-06T12:37:26.800Z,42.41
2019-04-06T12:38:26.788Z,42.07
2019-04-06T12:39:26.841Z,40.86
2019-04-06T12:40:26.791Z,40.97
2019-04-06T12:41:27.043Z,40.86
2019-04-06T12:42:26.744Z,40.69
2019-04-06T12:43:26.809Z,40.52
2019-04-06T12:44:26.773Z,42.05
2019-04-06T12:45:26.713Z,42.05
2019-04-06T12:46:26.906Z,41.47
2019-04-06T12:47:26.740Z,42.07
2019-04-06T12:48:26.679Z,41.57
2019-04-06T12:49:26.749Z,41.79
2019-04-06T12:50:26.660Z,43.30
2019-04-06T12:51:26.647Z,43.52
2019-04-06T12:52:26.642Z,44.16
2019-04-06T12:53:26.626Z,43.98
2019-04-06T12:54:26.621Z,44.46
2019-04-06T12:55:26.603Z,44.44
2019-04-06T12:56:26.692Z,45.22
2019-04-06T12:57:26.580Z,43.82
2019-04-06T12:58:26.570Z,43.24
2019-04-06T12:59:26.729Z,44.14
2019-04-06T13:00:26.549Z,44.54
2019-04-06T13:01:26.540Z,43.62
2019-04-06T13:02:26.916Z,43.74
2019-04-06T13:03:26.515Z,44.10
2019-04-06T13:04:26.599Z,43.08
2019-04-06T13:05:26.493Z,42.71
2019-04-06T13:06:26.484Z,40.81
2019-04-06T13:07:26.474Z,41.61
2019-04-06T13:08:26.459Z,41.93
2019-04-06T13:09:26.464Z,42.13
2019-04-06T13:10:26.438Z,41.85
2019-04-06T13:11:26.427Z,41.63
2019-04-06T13:12:26.417Z,41.49
2019-04-06T13:13:26.417Z,39.84
2019-04-06T13:14:26.422Z,39.62
2019-04-06T13:15:26.391Z,39.50
2019-04-06T13:16:26.572Z,39.10
2019-04-06T13:17:26.361Z,39.82
2019-04-06T13:18:26.351Z,38.52
2019-04-06T13:19:26.338Z,39.84
2019-04-06T13:20:26.347Z,39.86
2019-04-06T13:21:26.453Z,39.94
2019-04-06T13:22:26.359Z,40.53
2019-04-06T13:23:26.330Z,39.76
2019-04-06T13:24:26.284Z,39.69
2019-04-06T13:25:26.284Z,41.71
2019-04-06T13:26:26.445Z,41.53
2019-04-06T13:27:26.433Z,41.66
2019-04-06T13:28:26.427Z,42.47
2019-04-06T13:29:26.229Z,43.08
2019-04-06T13:30:26.245Z,42.90
2019-04-06T13:31:26.211Z,42.91
2019-04-06T13:32:26.209Z,43.84
2019-04-06T13:33:26.195Z,43.16
2019-04-06T13:34:26.344Z,43.98
2019-04-06T13:35:26.720Z,45.29
2019-04-06T13:36:26.338Z,44.91
2019-04-06T13:37:26.494Z,45.23
2019-04-06T13:38:26.130Z,44.83
2019-04-06T13:39:26.218Z,46.03
2019-04-06T13:40:26.173Z,46.15
2019-04-06T13:41:26.098Z,45.35
2019-04-06T13:42:26.089Z,46.96
2019-04-06T13:43:26.352Z,47.19
2019-04-06T13:44:26.065Z,46.88
2019-04-06T13:45:26.069Z,47.69
2019-04-06T13:46:26.042Z,46.58
2019-04-06T13:47:26.032Z,48.49
2019-04-06T13:48:26.025Z,47.99
2019-04-06T13:49:26.011Z,47.08
2019-04-06T13:50:26.377Z,46.78
2019-04-06T13:51:26.141Z,47.49
2019-04-06T13:52:25.977Z,46.88
2019-04-06T13:53:25.968Z,47.71
2019-04-06T13:54:25.955Z,48.19
2019-04-06T13:55:26.010Z,47.91
2019-04-06T13:56:25.933Z,47.94
2019-04-06T13:57:25.922Z,48.03
2019-04-06T13:58:25.912Z,48.34
2019-04-06T13:59:25.917Z,48.16
2019-04-06T14:00:25.892Z,48.56
2019-04-06T14:01:26.117Z,48.56
2019-04-06T14:02:25.918Z,48.86
2019-04-06T14:03:25.986Z,49.16
2019-04-06T14:04:25.889Z,49.77
2019-04-06T14:05:26.046Z,49.77
2019-04-06T14:06:25.873Z,48.56
2019-04-06T14:07:25.877Z,48.56
2019-04-06T14:08:25.799Z,49.07
2019-04-06T14:09:25.812Z,49.27
2019-04-06T14:10:25.800Z,48.46
2019-04-06T14:11:25.778Z,49.19
2019-04-06T14:12:26.138Z,48.79
2019-04-06T14:13:25.750Z,50.10
2019-04-06T14:14:25.823Z,48.69
2019-04-06T14:15:25.747Z,48.69
2019-04-06T14:16:25.719Z,48.36
2019-04-06T14:17:25.777Z,49.19
2019-04-06T14:18:25.697Z,48.69
2019-04-06T14:19:26.031Z,48.69
2019-04-06T14:20:25.670Z,49.57
2019-04-06T14:21:25.681Z,48.89
2019-04-06T14:22:25.644Z,48.36
2019-04-06T14:23:25.631Z,47.66
2019-04-06T14:24:25.629Z,48.28
2019-04-06T14:25:25.904Z,49.09
2019-04-06T14:26:25.607Z,48.18
2019-04-06T14:27:25.612Z,48.89
2019-04-06T14:28:25.583Z,48.18
2019-04-06T14:29:25.608Z,48.18
2019-04-06T14:30:25.725Z,48.28
2019-04-06T14:31:29.382Z,48.69
2019-04-06T14:32:25.530Z,49.19
2019-04-06T14:33:25.523Z,48.38
2019-04-06T14:34:25.513Z,49.09
2019-04-06T14:35:25.744Z,49.09
2019-04-06T14:36:25.490Z,49.09
2019-04-06T14:37:25.802Z,49.39
2019-04-06T14:38:25.474Z,49.39
2019-04-06T14:39:25.502Z,48.49
2019-04-06T14:40:25.458Z,47.78
2019-04-06T14:41:25.426Z,48.38
2019-04-06T14:42:25.424Z,48.69
2019-04-06T14:43:25.422Z,49.09
2019-04-06T14:44:25.421Z,49.59
2019-04-06T14:45:25.712Z,49.09
2019-04-06T14:46:25.374Z,48.38
2019-04-06T14:47:25.370Z,48.89
2019-04-06T14:48:25.555Z,48.99
2019-04-06T14:49:31.248Z,48.89
2019-04-06T14:50:26.377Z,49.39
2019-04-06T14:51:25.317Z,48.69
2019-04-06T14:52:25.311Z,48.76
2019-04-06T14:53:25.290Z,49.29
2019-04-06T14:54:27.005Z,48.69
2019-04-06T14:55:25.561Z,48.86
2019-04-06T14:56:25.444Z,49.59
2019-04-06T14:57:25.264Z,48.49
2019-04-06T14:58:25.235Z,48.89
2019-04-06T14:59:25.899Z,48.79
2019-04-06T15:00:25.304Z,48.79
2019-04-06T15:01:37.014Z,49.49
2019-04-06T15:02:26.200Z,49.92
2019-04-06T15:03:25.181Z,50.10
2019-04-06T15:04:25.170Z,49.90
2019-04-06T15:05:25.164Z,48.69
2019-04-06T15:06:25.156Z,48.49
2019-04-06T15:07:25.159Z,49.69
2019-04-06T15:08:25.124Z,49.90
2019-04-06T15:09:25.113Z,48.99
2019-04-06T15:10:25.261Z,50.50
2019-04-06T15:11:25.125Z,50.30
2019-04-06T15:12:25.121Z,49.59
2019-04-06T15:13:25.404Z,48.79
2019-04-06T15:14:25.105Z,48.58
2019-04-06T15:15:25.153Z,48.58
2019-04-06T15:16:25.042Z,49.79
2019-04-06T15:17:25.144Z,48.58
2019-04-06T15:18:25.099Z,48.76
2019-04-06T15:19:25.009Z,48.86
2019-04-06T15:20:25.018Z,48.66
2019-04-06T15:21:24.985Z,48.66
2019-04-06T15:22:25.008Z,48.86
2019-04-06T15:23:25.375Z,48.56
2019-04-06T15:24:24.959Z,48.46
2019-04-06T15:25:24.941Z,49.09
2019-04-06T15:26:24.940Z,49.19
2019-04-06T15:27:24.939Z,48.66
2019-04-06T15:28:25.242Z,49.39
2019-04-06T15:29:25.267Z,48.58
2019-04-06T15:30:24.889Z,48.58
2019-04-06T15:31:24.884Z,49.92
2019-04-06T15:32:24.872Z,48.69
2019-04-06T15:33:24.867Z,49.31
2019-04-06T15:34:24.859Z,49.72
2019-04-06T15:35:24.832Z,50.12
2019-04-06T15:36:25.141Z,50.73
2019-04-06T15:37:24.809Z,49.31
2019-04-06T15:38:24.798Z,49.92
2019-04-06T15:39:24.799Z,50.32
2019-04-06T15:40:25.056Z,50.32
2019-04-06T15:41:24.776Z,50.52
2019-04-06T15:42:24.757Z,50.45
2019-04-06T15:43:24.749Z,50.04
2019-04-06T15:44:24.731Z,50.75
2019-04-06T15:45:24.727Z,50.45
2019-04-06T15:46:24.721Z,50.85
2019-04-06T15:47:24.700Z,50.95
2019-04-06T15:48:36.630Z,50.75
2019-04-06T15:49:25.679Z,49.84
2019-04-06T15:50:24.998Z,50.24
2019-04-06T15:51:24.698Z,50.35
2019-04-06T15:52:25.042Z,50.55
2019-04-06T15:53:24.636Z,50.73
2019-04-06T15:54:24.723Z,50.35
2019-04-06T15:55:24.928Z,50.35
2019-04-06T15:56:24.602Z,49.94
2019-04-06T15:57:24.611Z,50.32
2019-04-06T15:58:24.902Z,50.42
2019-04-06T15:59:24.571Z,50.55
2019-04-06T16:00:24.565Z,50.55
2019-04-06T16:01:24.551Z,50.55
2019-04-06T16:02:24.545Z,50.95
2019-04-06T16:03:24.528Z,51.84
2019-04-06T16:04:24.721Z,50.55
2019-04-06T16:05:24.503Z,50.35
2019-04-06T16:06:24.659Z,50.73
2019-04-06T16:07:31.414Z,50.12
2019-04-06T16:08:25.473Z,50.35
2019-04-06T16:09:24.466Z,49.94
2019-04-06T16:10:24.450Z,50.35
2019-04-06T16:11:24.440Z,50.62
2019-04-06T16:12:24.977Z,50.65
2019-04-06T16:13:24.419Z,50.75
2019-04-06T16:14:24.810Z,50.75
2019-04-06T16:15:24.395Z,50.24
2019-04-06T16:16:24.384Z,51.05
2019-04-06T16:17:24.391Z,50.04
2019-04-06T16:18:24.361Z,50.55
2019-04-06T16:19:24.352Z,50.24
2019-04-06T16:20:24.338Z,50.37
2019-04-06T16:21:24.327Z,50.75
2019-04-06T16:22:24.318Z,50.04
2019-04-06T16:23:24.329Z,50.67
2019-04-06T16:24:24.294Z,50.07
2019-04-06T16:25:24.286Z,50.16
2019-04-06T16:26:24.512Z,50.27
2019-04-06T16:27:24.261Z,50.27
2019-04-06T16:28:24.327Z,50.78
2019-04-06T16:29:24.250Z,50.78
2019-04-06T16:30:24.500Z,51.28
2019-04-06T16:31:24.342Z,51.28
2019-04-06T16:32:32.942Z,51.28
2019-04-06T16:33:25.206Z,50.98
2019-04-06T16:34:24.500Z,51.18
2019-04-06T16:35:24.181Z,50.78
2019-04-06T16:36:24.199Z,50.98
2019-04-06T16:37:24.151Z,51.28
2019-04-06T16:38:24.182Z,51.28
2019-04-06T16:39:24.131Z,51.18
2019-04-06T16:40:24.117Z,50.80
2019-04-06T16:41:24.111Z,50.49
2019-04-06T16:42:24.097Z,50.57
2019-04-06T16:43:24.095Z,50.49
2019-04-06T16:44:24.074Z,50.80
2019-04-06T16:45:24.062Z,50.80
2019-04-06T16:46:24.056Z,51.20
2019-04-06T16:47:24.070Z,51.50
2019-04-06T16:48:24.051Z,52.01
2019-04-06T16:49:24.018Z,50.90
2019-04-06T16:50:24.043Z,51.20
2019-04-06T16:51:23.996Z,51.71
2019-04-06T16:52:24.260Z,51.91
2019-04-06T16:53:23.981Z,52.11
2019-04-06T16:54:23.983Z,51.83
2019-04-06T16:55:23.951Z,52.41
2019-04-06T16:56:24.351Z,51.53
2019-04-06T16:57:23.948Z,51.93
2019-04-06T16:58:23.917Z,52.44
2019-04-06T16:59:23.915Z,51.93
2019-04-06T17:00:23.907Z,52.03
2019-04-06T17:01:23.885Z,53.14
2019-04-06T17:02:24.902Z,52.03
2019-04-06T17:03:23.888Z,52.26
2019-04-06T17:04:23.861Z,52.44
2019-04-06T17:05:23.838Z,52.64
2019-04-06T17:06:23.836Z,53.14
2019-04-06T17:07:23.986Z,53.07
2019-04-06T17:08:23.804Z,53.07
2019-04-06T17:09:23.894Z,53.07
2019-04-06T17:10:23.810Z,52.97
2019-04-06T17:11:24.234Z,52.76
2019-04-06T17:12:23.759Z,52.97
2019-04-06T17:13:23.870Z,53.17
2019-04-06T17:14:23.848Z,53.47
2019-04-06T17:15:24.064Z,53.27
2019-04-06T17:16:23.717Z,52.97
2019-04-06T17:17:23.709Z,53.30
2019-04-06T17:18:23.713Z,53.70
2019-04-06T17:19:23.689Z,54.21
2019-04-06T17:20:23.909Z,53.67
2019-04-06T17:21:24.018Z,53.60
2019-04-06T17:22:23.651Z,53.80
2019-04-06T17:23:23.787Z,53.70
2019-04-06T17:24:23.634Z,53.90
2019-04-06T17:25:24.487Z,53.83
2019-04-06T17:26:25.467Z,54.00
2019-04-06T17:27:23.620Z,53.83
2019-04-06T17:28:23.624Z,54.61
2019-04-06T17:29:23.582Z,54.64
2019-04-06T17:30:23.569Z,54.64
2019-04-06T17:31:23.560Z,54.74
2019-04-06T17:32:34.785Z,54.64
2019-04-06T17:33:24.525Z,54.84
2019-04-06T17:34:23.587Z,55.04
2019-04-06T17:35:23.514Z,54.84
2019-04-06T17:36:23.555Z,54.94
2019-04-06T17:37:23.486Z,55.35
2019-04-06T17:38:24.303Z,55.75
2019-04-06T17:39:23.459Z,55.68
2019-04-06T17:40:23.457Z,54.53
2019-04-06T17:41:23.840Z,54.64
2019-04-06T17:42:23.501Z,55.77
2019-04-06T17:43:23.671Z,55.88
2019-04-06T17:44:23.403Z,55.37
2019-04-06T17:45:23.404Z,55.27
2019-04-06T17:46:23.396Z,55.47
2019-04-06T17:47:23.368Z,55.88
2019-04-06T17:48:23.946Z,55.70
2019-04-06T17:49:24.540Z,55.60
2019-04-06T17:50:23.345Z,56.01
2019-04-06T17:51:23.461Z,56.10
2019-04-06T17:52:23.347Z,56.51
2019-04-06T17:53:23.428Z,56.51
2019-04-06T17:54:23.292Z,56.61
2019-04-06T17:55:23.290Z,56.51
2019-04-06T17:56:23.268Z,56.54
2019-04-06T17:57:23.415Z,56.41
2019-04-06T17:58:23.260Z,56.61
2019-04-06T17:59:23.237Z,56.23
2019-04-06T18:00:23.238Z,56.44
2019-04-06T18:01:23.214Z,56.54
2019-04-06T18:02:23.211Z,57.45
2019-04-06T18:03:23.615Z,57.45
2019-04-06T18:04:23.181Z,57.35
2019-04-06T18:05:23.185Z,57.75
2019-04-06T18:06:23.157Z,57.55
2019-04-06T18:07:23.956Z,57.68
2019-04-06T18:08:23.132Z,57.48
2019-04-06T18:09:23.414Z,57.78
2019-04-06T18:10:23.125Z,57.68
2019-04-06T18:11:23.111Z,57.91
2019-04-06T18:12:23.092Z,58.22
2019-04-06T18:13:23.083Z,58.42
2019-04-06T18:14:23.563Z,58.52
2019-04-06T18:15:23.061Z,58.11
2019-04-06T18:16:23.280Z,58.31
2019-04-06T18:17:23.168Z,57.84
2019-04-06T18:18:23.024Z,59.05
2019-04-06T18:19:23.013Z,59.05
2019-04-06T18:20:23.249Z,59.16
2019-04-06T18:21:23.521Z,59.36
2019-04-06T18:22:23.079Z,60.07
2019-04-06T18:23:23.327Z,59.56
2019-04-06T18:24:22.956Z,60.40
2019-04-06T18:25:23.420Z,60.50
2019-04-06T18:26:22.950Z,60.30
2019-04-06T18:27:22.924Z,59.89
2019-04-06T18:28:22.912Z,60.40
2019-04-06T18:29:22.902Z,60.10
2019-04-06T18:30:22.891Z,60.53
2019-04-06T18:31:22.888Z,60.53
2019-04-06T18:32:25.316Z,60.63
2019-04-06T18:33:22.854Z,60.43
2019-04-06T18:34:22.937Z,61.04
2019-04-06T18:35:22.832Z,61.34
2019-04-06T18:36:23.171Z,61.88
2019-04-06T18:37:22.813Z,62.56
2019-04-06T18:38:23.223Z,62.46
2019-04-06T18:39:22.789Z,62.05
2019-04-06T18:40:22.785Z,61.85
2019-04-06T18:41:22.776Z,61.47
2019-04-06T18:42:23.002Z,62.18
2019-04-06T18:43:23.265Z,62.70
2019-04-06T18:44:23.067Z,62.59
2019-04-06T18:45:23.170Z,63.00
2019-04-06T18:46:22.720Z,63.40
2019-04-06T18:47:23.153Z,63.10
2019-04-06T18:48:22.687Z,63.51
2019-04-06T18:49:22.819Z,63.00
2019-04-06T18:50:33.318Z,62.90
2019-04-06T18:51:23.665Z,62.82
2019-04-06T18:52:22.641Z,62.72
2019-04-06T18:53:22.736Z,63.33
2019-04-06T18:54:22.624Z,63.54
2019-04-06T18:55:22.608Z,63.94
2019-04-06T18:56:22.612Z,64.25
2019-04-06T18:57:22.587Z,63.74
2019-04-06T18:58:22.992Z,63.94
2019-04-06T18:59:23.186Z,63.94
2019-04-06T19:00:22.623Z,63.94
2019-04-06T19:01:22.551Z,64.38
2019-04-06T19:02:22.620Z,63.54
2019-04-06T19:03:22.521Z,63.84
2019-04-06T19:04:22.672Z,63.57
2019-04-06T19:05:22.904Z,63.67
2019-04-06T19:06:22.801Z,64.28
2019-04-06T19:07:22.489Z,65.30
2019-04-06T19:08:23.281Z,64.89
2019-04-06T19:09:24.661Z,64.38
2019-04-06T19:10:22.446Z,63.97
2019-04-06T19:11:22.475Z,65.60
2019-04-06T19:12:22.440Z,65.83
2019-04-06T19:13:23.206Z,65.22
2019-04-06T19:14:22.533Z,65.02
2019-04-06T19:15:22.877Z,64.72
2019-04-06T19:16:22.841Z,64.72
2019-04-06T19:17:22.427Z,65.53
2019-04-06T19:18:22.793Z,65.22
2019-04-06T19:19:23.165Z,65.22
2019-04-06T19:20:22.542Z,65.16
2019-04-06T19:21:22.341Z,64.95
2019-04-06T19:22:22.812Z,65.25
2019-04-06T19:23:22.296Z,65.36
2019-04-06T19:24:22.290Z,65.25
2019-04-06T19:25:22.379Z,66.07
2019-04-06T19:26:22.272Z,65.05
2019-04-06T19:27:22.804Z,64.75
2019-04-06T19:28:22.257Z,64.44
2019-04-06T19:29:22.626Z,65.39
2019-04-06T19:30:22.221Z,65.39
2019-04-06T19:31:22.322Z,65.19
2019-04-06T19:32:22.457Z,66.58
2019-04-06T19:33:25.487Z,65.77
2019-04-06T19:34:22.276Z,66.20
2019-04-06T19:35:22.393Z,66.41
2019-04-06T19:36:22.992Z,65.59
2019-04-06T19:37:22.576Z,66.82
2019-04-06T19:38:22.392Z,66.20
2019-04-06T19:39:22.180Z,66.10
2019-04-06T19:40:22.629Z,66.50
2019-04-06T19:41:22.447Z,66.91
2019-04-06T19:42:22.679Z,66.50
2019-04-06T19:43:22.075Z,67.35
2019-04-06T19:44:22.063Z,67.96
2019-04-06T19:45:22.329Z,67.63
2019-04-06T19:46:22.063Z,67.15
2019-04-06T19:47:22.253Z,68.17
2019-04-06T19:48:22.030Z,68.78
2019-04-06T19:49:22.029Z,68.68
2019-04-06T19:50:22.209Z,69.09
2019-04-06T19:51:22.002Z,68.98
2019-04-06T19:52:21.979Z,68.68
2019-04-06T19:53:22.416Z,67.86
2019-04-06T19:54:22.126Z,67.59
2019-04-06T19:55:22.879Z,67.69
2019-04-06T19:56:22.254Z,67.66
2019-04-06T19:57:21.946Z,67.59
2019-04-06T19:58:21.922Z,68.81
2019-04-06T19:59:21.895Z,68.71
2019-04-06T20:00:22.364Z,68.91
2019-04-06T20:01:21.922Z,67.90
2019-04-06T20:02:22.069Z,68.61
2019-04-06T20:03:29.196Z,69.02
2019-04-06T20:04:22.839Z,69.22
2019-04-06T20:05:21.838Z,68.51
2019-04-06T20:06:21.823Z,68.71
2019-04-06T20:07:21.834Z,68.95
2019-04-06T20:08:21.826Z,69.42
2019-04-06T20:09:21.784Z,68.74
2019-04-06T20:10:21.823Z,69.25
2019-04-06T20:11:22.017Z,69.25
2019-04-06T20:12:21.748Z,69.63
2019-04-06T20:13:22.273Z,69.56
2019-04-06T20:14:21.946Z,69.56
2019-04-06T20:15:22.154Z,69.66
2019-04-06T20:16:21.730Z,69.25
2019-04-06T20:17:22.446Z,70.17
2019-04-06T20:18:21.696Z,69.35
2019-04-06T20:19:22.559Z,69.46
2019-04-06T20:20:22.242Z,69.96
2019-04-06T20:21:21.739Z,69.56
2019-04-06T20:22:21.640Z,69.86
2019-04-06T20:23:22.092Z,69.56
2019-04-06T20:24:21.778Z,70.78
2019-04-06T20:25:21.606Z,70.48
2019-04-06T20:26:22.243Z,71.19
2019-04-06T20:27:21.594Z,71.09
2019-04-06T20:28:22.169Z,70.57
2019-04-06T20:29:22.132Z,71.02
2019-04-06T20:30:21.746Z,70.48
2019-04-06T20:31:21.540Z,70.37
2019-04-06T20:32:21.530Z,71.22
2019-04-06T20:33:21.545Z,71.50
2019-04-06T20:34:21.881Z,71.63
2019-04-06T20:35:21.513Z,71.73
2019-04-06T20:36:21.482Z,71.53
2019-04-06T20:37:21.599Z,70.61
2019-04-06T20:38:21.880Z,71.12
2019-04-06T20:39:22.010Z,70.20
2019-04-06T20:40:21.437Z,71.73
2019-04-06T20:41:21.470Z,72.24
2019-04-06T20:42:21.420Z,72.75
2019-04-06T20:43:21.402Z,72.45
2019-04-06T20:44:21.399Z,72.75
2019-04-06T20:45:21.385Z,72.89
2019-04-06T20:46:21.367Z,73.10
2019-04-06T20:47:21.611Z,72.79
2019-04-06T20:48:21.501Z,72.69
2019-04-06T20:49:21.342Z,72.69
2019-04-06T20:50:21.368Z,73.10
2019-04-06T20:51:21.486Z,72.69
2019-04-06T20:52:21.758Z,73.10
2019-04-06T20:53:21.290Z,72.99
2019-04-06T20:54:21.287Z,72.89
2019-04-06T20:55:21.325Z,73.03
2019-04-06T20:56:21.707Z,73.13
2019-04-06T20:57:21.247Z,72.99
2019-04-06T20:58:21.241Z,73.60
2019-04-06T20:59:21.235Z,73.13
2019-04-06T21:00:21.211Z,73.03
2019-04-06T21:01:21.198Z,73.60
2019-04-06T21:02:21.596Z,73.81
2019-04-06T21:03:21.187Z,73.84
2019-04-06T21:04:21.213Z,73.94
2019-04-06T21:05:21.154Z,72.82
2019-04-06T21:06:21.681Z,73.94
2019-04-06T21:07:21.610Z,74.25
2019-04-06T21:08:21.126Z,74.66
2019-04-06T21:09:21.220Z,74.05
2019-04-06T21:10:21.340Z,74.25
2019-04-06T21:11:21.103Z,73.94
2019-04-06T21:12:21.077Z,74.87
2019-04-06T21:13:21.273Z,74.15
2019-04-06T21:14:21.563Z,73.88
2019-04-06T21:15:21.483Z,74.49
2019-04-06T21:16:21.038Z,74.90
2019-04-06T21:17:21.021Z,74.39
2019-04-06T21:18:21.040Z,74.08
2019-04-06T21:19:21.044Z,73.57
2019-04-06T21:20:21.003Z,74.08
2019-04-06T21:21:21.053Z,74.18
2019-04-06T21:22:20.965Z,74.35
2019-04-06T21:23:20.954Z,73.77
2019-04-06T21:24:20.940Z,73.88
2019-04-06T21:25:21.132Z,73.57
2019-04-06T21:26:21.500Z,74.90
2019-04-06T21:27:20.912Z,74.08
2019-04-06T21:28:20.939Z,73.68
2019-04-06T21:29:21.739Z,73.77
2019-04-06T21:30:21.387Z,74.39
2019-04-06T21:31:20.862Z,74.18
2019-04-06T21:32:20.854Z,74.18
2019-04-06T21:33:20.851Z,73.77
2019-04-06T21:34:21.012Z,74.49
2019-04-06T21:35:21.438Z,75.41
2019-04-06T21:36:20.809Z,75.82
2019-04-06T21:37:21.147Z,75.62
2019-04-06T21:38:20.803Z,75.41
2019-04-06T21:39:21.296Z,75.31
2019-04-06T21:40:21.446Z,74.11
2019-04-06T21:41:20.800Z,74.02
2019-04-06T21:42:20.946Z,73.77
2019-04-06T21:43:20.727Z,73.61
2019-04-06T21:44:20.736Z,73.88
2019-04-06T21:45:20.744Z,74.22
2019-04-06T21:46:21.309Z,74.43
2019-04-06T21:47:20.682Z,74.39
2019-04-06T21:48:21.239Z,73.77
2019-04-06T21:49:21.592Z,73.81
2019-04-06T21:50:20.650Z,74.08
2019-04-06T21:51:20.649Z,74.29
2019-04-06T21:52:20.897Z,76.16
2019-04-06T21:53:20.619Z,75.85
2019-04-06T21:54:20.608Z,75.55
2019-04-06T21:55:20.730Z,75.71
2019-04-06T21:56:20.643Z,75.55
2019-04-06T21:57:20.581Z,75.96
2019-04-06T21:58:20.581Z,76.47
2019-04-06T21:59:20.889Z,76.06
2019-04-06T22:00:20.975Z,75.85
2019-04-06T22:01:20.538Z,76.47
2019-04-06T22:02:20.527Z,76.06
2019-04-06T22:03:20.699Z,75.55
2019-04-06T22:04:25.912Z,75.79
2019-04-06T22:05:21.518Z,76.61
2019-04-06T22:06:20.726Z,77.32
2019-04-06T22:07:20.478Z,75.75
2019-04-06T22:08:20.503Z,75.89
2019-04-06T22:09:20.437Z,75.99
2019-04-06T22:10:20.882Z,75.99
2019-04-06T22:11:20.438Z,76.61
2019-04-06T22:12:20.405Z,75.89
2019-04-06T22:13:20.655Z,77.32
2019-04-06T22:14:20.383Z,76.50
2019-04-06T22:15:20.394Z,76.50